createdAt,value
2022-09-28T00:01:14.700Z,18.1
2022-09-28T00:11:14.633Z,18.1
2022-09-28T00:21:14.696Z,18
2022-09-28T00:31:14.697Z,18
2022-09-28T00:41:14.680Z,18
2022-09-28T00:51:14.609Z,18
2022-09-28T01:01:14.747Z,17.9
2022-09-28T01:11:14.607Z,17.9
2022-09-28T01:21:14.683Z,17.9
2022-09-28T01:31:14.831Z,17.9
2022-09-28T01:41:14.676Z,17.9
2022-09-28T01:51:14.799Z,17.9
2022-09-28T02:01:14.745Z,17.8
2022-09-28T02:11:14.802Z,17.8
2022-09-28T02:21:14.668Z,17.8
2022-09-28T02:31:14.833Z,17.8
2022-09-28T02:41:14.870Z,17.8
2022-09-28T02:51:14.788Z,17.7
2022-09-28T03:01:14.916Z,17.7
2022-09-28T03:11:14.780Z,17.7
2022-09-28T03:21:14.852Z,17.7
2022-09-28T03:31:14.813Z,17.7
2022-09-28T03:41:14.845Z,17.7
2022-09-28T03:51:14.770Z,17.6
2022-09-28T04:01:17.183Z,17.6
2022-09-28T04:11:14.958Z,17.6
2022-09-28T04:21:14.836Z,17.6
2022-09-28T04:31:15.001Z,17.6
2022-09-28T04:41:14.834Z,17.6
2022-09-28T04:51:14.963Z,17.6
2022-09-28T05:01:14.862Z,17.6
2022-09-28T05:11:14.942Z,17.5
2022-09-28T05:21:14.822Z,17.5
2022-09-28T05:31:15.111Z,17.5
2022-09-28T05:41:15.022Z,17.5
2022-09-28T05:51:14.947Z,19.5
2022-09-28T06:01:15.118Z,19.5
2022-09-28T06:11:14.936Z,19
2022-09-28T06:21:15.012Z,18.7
2022-09-28T06:31:14.994Z,18.4
2022-09-28T06:41:15.010Z,18.2
2022-09-28T06:51:14.937Z,18.6
2022-09-28T07:01:15.035Z,20.1
2022-09-28T07:11:15.124Z,19.9
2022-09-28T07:21:24.977Z,19.4
2022-09-28T07:31:15.150Z,19.1
2022-09-28T07:41:14.993Z,18.8
2022-09-28T07:51:15.144Z,18.7
2022-09-28T08:01:15.094Z,18.5
2022-09-28T08:11:15.111Z,18.4
2022-09-28T08:21:15.197Z,18.2
2022-09-28T08:31:15.148Z,18.2
2022-09-28T08:41:15.175Z,18.2
2022-09-28T08:51:15.095Z,18.5
2022-09-28T09:01:15.229Z,18.5
2022-09-28T09:11:15.127Z,18.6
2022-09-28T09:21:15.199Z,18.5
2022-09-28T09:31:17.666Z,18.5
2022-09-28T09:41:15.167Z,18.5
2022-09-28T09:51:15.299Z,18.5
2022-09-28T10:01:15.257Z,18.5
2022-09-28T10:11:15.284Z,18.5
2022-09-28T10:21:15.151Z,18.5
2022-09-28T10:31:15.277Z,18.5
2022-09-28T10:41:15.143Z,18.4
2022-09-28T10:51:15.281Z,18.1
2022-09-28T11:01:15.464Z,18.1
2022-09-28T11:11:15.278Z,18.1
2022-09-28T11:21:15.345Z,18.3
2022-09-28T11:31:15.341Z,18.1
2022-09-28T11:41:15.329Z,18.1
2022-09-28T11:51:15.261Z,18.1
2022-09-28T12:01:18.689Z,18.1
2022-09-28T12:11:15.250Z,18.2
2022-09-28T12:21:15.330Z,18
2022-09-28T12:31:16.028Z,18.2
2022-09-28T12:41:15.328Z,18.4
2022-09-28T12:51:15.454Z,18.5
2022-09-28T13:01:15.417Z,18.5
2022-09-28T13:11:15.503Z,18.5
2022-09-28T13:21:15.318Z,18.5
2022-09-28T13:31:15.446Z,18.5
2022-09-28T13:41:15.538Z,18.5
2022-09-28T13:51:15.434Z,18.6
2022-09-28T14:01:15.565Z,18.7
2022-09-28T14:11:15.431Z,18.6
2022-09-28T14:21:15.501Z,18.6
2022-09-28T14:31:15.524Z,18.5
2022-09-28T14:41:15.516Z,18.5
2022-09-28T14:51:15.513Z,18.6
2022-09-28T15:01:15.589Z,18.8
2022-09-28T15:11:15.503Z,18.7
2022-09-28T15:21:15.572Z,18.7
2022-09-28T15:31:15.754Z,18.8
2022-09-28T15:41:15.597Z,18.8
2022-09-28T15:51:15.498Z,18.8
2022-09-28T16:01:15.693Z,18.9
2022-09-28T16:11:15.490Z,19
2022-09-28T16:21:15.557Z,19.4
2022-09-28T16:31:15.770Z,19.4
2022-09-28T16:41:15.587Z,19.2
2022-09-28T16:51:15.707Z,19
2022-09-28T17:01:15.586Z,19
2022-09-28T17:11:19.135Z,18.9
2022-09-28T17:21:15.572Z,18.8
2022-09-28T17:31:15.746Z,18.7
2022-09-28T17:41:19.514Z,18.7
2022-09-28T17:51:15.735Z,18.8
2022-09-28T18:01:15.778Z,18.7
2022-09-28T18:11:15.680Z,18.6
2022-09-28T18:21:15.735Z,18.6
2022-09-28T18:31:15.842Z,18.6
2022-09-28T18:41:16.130Z,18.6
2022-09-28T18:51:15.656Z,18.6
2022-09-28T19:01:31.628Z,18.4
2022-09-28T19:11:15.864Z,18.6
2022-09-28T19:21:15.721Z,18.5
2022-09-28T19:31:15.844Z,18.5
2022-09-28T19:41:15.847Z,18.5
2022-09-28T19:51:15.838Z,18.5
2022-09-28T20:01:15.754Z,18.5
2022-09-28T20:11:15.824Z,18.3
2022-09-28T20:21:18.093Z,18.3
2022-09-28T20:31:15.843Z,18.4
2022-09-28T20:41:15.865Z,18.6
2022-09-28T20:51:15.880Z,18.3
2022-09-28T21:01:15.937Z,18.3
2022-09-28T21:11:15.820Z,18.3
2022-09-28T21:21:15.958Z,18.5
2022-09-28T21:31:16.032Z,18.3
2022-09-28T21:41:15.901Z,18.3
2022-09-28T21:51:16.020Z,18.4
2022-09-28T22:01:15.901Z,18.2
2022-09-28T22:11:16.004Z,18.2
2022-09-28T22:21:15.989Z,18.2
2022-09-28T22:31:16.121Z,18.2
2022-09-28T22:41:15.919Z,18.4
2022-09-28T22:51:15.996Z,18.2
2022-09-28T23:01:15.938Z,18.2
2022-09-28T23:11:16.271Z,18.3
2022-09-28T23:21:16.093Z,18.3
2022-09-28T23:31:16.050Z,18.2
2022-09-28T23:41:16.070Z,18.2
2022-09-28T23:51:15.985Z,18.2
